createdAt,value
2022-08-26T00:01:05.461Z,4.77
2022-08-26T00:03:53.751Z,5.13
2022-08-26T00:06:42.759Z,4.60
2022-08-26T00:09:38.996Z,4.87
2022-08-26T00:12:27.862Z,4.53
2022-08-26T00:15:25.292Z,4.57
2022-08-26T00:18:22.342Z,4.50
2022-08-26T00:21:11.006Z,4.10
2022-08-26T00:23:58.192Z,4.47
2022-08-26T00:26:45.080Z,4.83
2022-08-26T00:29:34.845Z,5.10
2022-08-26T00:32:25.581Z,4.33
2022-08-26T00:35:13.355Z,4.43
2022-08-26T00:38:01.408Z,4.67
2022-08-26T00:40:50.675Z,4.47
2022-08-26T00:43:47.521Z,4.17
2022-08-26T00:46:37.820Z,4.20
2022-08-26T00:49:33.645Z,4.50
2022-08-26T00:52:22.904Z,4.13
2022-08-26T00:55:20.278Z,4.63
2022-08-26T00:58:09.374Z,4.50
2022-08-26T01:00:56.960Z,4.30
2022-08-26T01:03:45.357Z,5.00
2022-08-26T01:06:33.636Z,4.93
2022-08-26T01:09:21.430Z,4.67
2022-08-26T01:12:08.541Z,4.83
2022-08-26T01:14:56.031Z,5.03
2022-08-26T01:17:43.909Z,4.73
2022-08-26T01:20:37.423Z,5.17
2022-08-26T01:23:29.963Z,4.90
2022-08-26T01:26:20.178Z,5.40
2022-08-26T01:29:07.804Z,5.30
2022-08-26T01:31:56.821Z,5.20
2022-08-26T01:34:44.168Z,5.00
2022-08-26T01:37:36.901Z,5.27
2022-08-26T01:40:29.713Z,6.00
2022-08-26T01:43:21.056Z,5.53
2022-08-26T01:46:09.562Z,6.37
2022-08-26T01:48:58.608Z,5.90
2022-08-26T01:51:45.771Z,6.30
2022-08-26T01:54:33.842Z,6.87
2022-08-26T01:57:24.625Z,7.30
2022-08-26T02:00:13.672Z,6.70
2022-08-26T02:03:18.192Z,7.53
2022-08-26T02:06:09.380Z,6.53
2022-08-26T02:08:58.128Z,7.40
2022-08-26T02:11:45.348Z,6.57
2022-08-26T02:14:35.811Z,7.10
2022-08-26T02:17:36.123Z,6.47
2022-08-26T02:20:26.577Z,6.60
2022-08-26T02:23:13.890Z,5.70
2022-08-26T02:26:04.188Z,5.70
2022-08-26T02:28:52.972Z,5.50
2022-08-26T02:31:41.711Z,5.33
2022-08-26T02:34:31.156Z,6.73
2022-08-26T02:37:18.203Z,5.40
2022-08-26T02:40:08.516Z,5.17
2022-08-26T02:42:56.084Z,5.90
2022-08-26T02:45:44.270Z,5.23
2022-08-26T02:48:33.368Z,5.33
2022-08-26T02:51:20.181Z,5.23
2022-08-26T02:54:07.376Z,5.73
2022-08-26T02:56:55.430Z,6.00
2022-08-26T02:59:42.437Z,5.03
2022-08-26T03:02:29.927Z,5.30
2022-08-26T03:05:19.736Z,5.50
2022-08-26T03:08:06.936Z,5.47
2022-08-26T03:10:54.020Z,5.70
2022-08-26T03:13:41.046Z,5.87
2022-08-26T03:16:32.355Z,5.50
2022-08-26T03:19:20.047Z,5.33
2022-08-26T03:22:08.419Z,5.87
2022-08-26T03:24:56.289Z,4.90
2022-08-26T03:27:43.635Z,5.83
2022-08-26T03:30:45.367Z,5.80
2022-08-26T03:33:33.344Z,6.53
2022-08-26T03:36:20.619Z,6.27
2022-08-26T03:39:09.087Z,6.00
2022-08-26T03:41:57.503Z,5.40
2022-08-26T03:44:44.592Z,5.40
2022-08-26T03:47:33.672Z,5.90
2022-08-26T03:50:23.037Z,5.83
2022-08-26T03:53:12.926Z,5.93
2022-08-26T03:56:01.785Z,5.97
2022-08-26T03:58:49.195Z,5.73
2022-08-26T04:01:38.221Z,5.53
2022-08-26T04:04:25.691Z,5.30
2022-08-26T04:07:12.725Z,5.33
2022-08-26T04:10:00.309Z,4.90
2022-08-26T04:12:48.521Z,5.83
2022-08-26T04:15:35.540Z,6.13
2022-08-26T04:18:23.349Z,5.17
2022-08-26T04:21:12.056Z,5.23
2022-08-26T04:24:03.410Z,5.77
2022-08-26T04:26:50.572Z,6.00
2022-08-26T04:29:41.489Z,5.60
2022-08-26T04:32:28.686Z,5.77
2022-08-26T04:35:15.859Z,5.27
2022-08-26T04:38:03.771Z,5.80
2022-08-26T04:40:52.730Z,5.47
2022-08-26T04:43:41.713Z,5.83
2022-08-26T04:46:29.906Z,5.47
2022-08-26T04:49:17.981Z,5.60
2022-08-26T04:52:06.029Z,5.80
2022-08-26T04:54:53.006Z,5.57
2022-08-26T04:57:40.633Z,5.03
2022-08-26T05:00:27.645Z,5.50
2022-08-26T05:03:17.211Z,5.70
2022-08-26T05:06:06.281Z,5.77
2022-08-26T05:08:52.998Z,6.00
2022-08-26T05:11:40.046Z,5.67
2022-08-26T05:14:27.156Z,6.10
2022-08-26T05:17:14.855Z,5.03
2022-08-26T05:20:04.028Z,5.97
2022-08-26T05:22:50.948Z,5.67
2022-08-26T05:25:40.402Z,5.50
2022-08-26T05:28:29.436Z,5.10
2022-08-26T05:31:18.622Z,5.17
2022-08-26T05:34:05.923Z,5.30
2022-08-26T05:36:55.418Z,5.00
2022-08-26T05:39:43.414Z,5.40
2022-08-26T05:45:45.926Z,5.07
2022-08-26T05:48:33.853Z,5.57
2022-08-26T05:51:25.399Z,5.07
2022-08-26T05:54:14.887Z,5.67
2022-08-26T05:57:09.070Z,5.80
2022-08-26T05:59:56.604Z,5.83
2022-08-26T06:02:43.695Z,6.50
2022-08-26T06:05:39.490Z,5.43
2022-08-26T06:08:26.579Z,5.23
2022-08-26T06:11:18.453Z,5.90
2022-08-26T06:14:07.755Z,5.30
2022-08-26T06:16:54.942Z,5.73
2022-08-26T06:19:41.506Z,6.80
2022-08-26T06:22:46.284Z,5.53
2022-08-26T06:25:39.194Z,5.60
2022-08-26T06:28:27.937Z,5.63
2022-08-26T06:31:15.924Z,5.70
2022-08-26T06:34:07.286Z,5.37
2022-08-26T06:36:59.546Z,5.73
2022-08-26T06:39:46.357Z,5.87
2022-08-26T06:42:33.582Z,5.73
2022-08-26T06:45:22.041Z,5.97
2022-08-26T06:48:09.346Z,5.90
2022-08-26T06:51:04.350Z,6.20
2022-08-26T06:53:53.245Z,5.50
2022-08-26T06:56:41.958Z,5.53
2022-08-26T06:59:31.123Z,6.03
2022-08-26T07:02:19.493Z,6.50
2022-08-26T07:05:08.522Z,5.70
2022-08-26T07:07:57.234Z,6.27
2022-08-26T07:10:44.320Z,6.03
2022-08-26T07:13:31.752Z,5.87
2022-08-26T07:16:19.442Z,6.73
2022-08-26T07:19:11.161Z,5.77
2022-08-26T07:21:58.981Z,5.70
2022-08-26T07:24:46.364Z,5.30
2022-08-26T07:27:33.679Z,5.70
2022-08-26T07:30:20.750Z,5.30
2022-08-26T07:33:07.829Z,6.10
2022-08-26T07:35:56.734Z,5.40
2022-08-26T07:38:45.240Z,6.20
2022-08-26T07:41:32.570Z,5.63
2022-08-26T07:44:20.068Z,5.27
2022-08-26T07:47:10.575Z,6.20
2022-08-26T07:50:12.331Z,5.77
2022-08-26T07:53:02.315Z,5.93
2022-08-26T07:55:50.254Z,5.73
2022-08-26T07:58:37.448Z,5.87
2022-08-26T08:01:25.814Z,5.57
2022-08-26T08:04:13.200Z,5.37
2022-08-26T08:07:01.112Z,5.43
2022-08-26T08:09:51.235Z,5.30
2022-08-26T08:12:38.405Z,5.07
2022-08-26T08:15:28.685Z,5.87
2022-08-26T08:18:16.804Z,6.10
2022-08-26T08:21:21.283Z,5.37
2022-08-26T08:24:12.137Z,4.83
2022-08-26T08:27:00.835Z,5.37
2022-08-26T08:29:48.121Z,5.60
2022-08-26T08:32:38.334Z,5.40
2022-08-26T08:35:26.625Z,5.03
2022-08-26T08:38:13.732Z,4.40
2022-08-26T08:41:00.895Z,5.93
2022-08-26T08:43:52.862Z,4.57
2022-08-26T08:46:40.916Z,5.60
2022-08-26T08:49:29.302Z,5.30
2022-08-26T08:52:26.935Z,5.27
2022-08-26T08:55:18.223Z,4.97
2022-08-26T08:58:08.976Z,4.87
2022-08-26T09:01:02.986Z,4.30
2022-08-26T09:03:59.081Z,4.07
2022-08-26T09:06:49.730Z,4.53
2022-08-26T09:09:45.204Z,3.80
2022-08-26T09:12:34.828Z,3.90
2022-08-26T09:15:30.148Z,4.33
2022-08-26T09:18:33.047Z,3.97
2022-08-26T09:21:23.294Z,4.37
2022-08-26T09:24:11.253Z,3.90
2022-08-26T09:27:01.038Z,4.27
2022-08-26T09:29:50.453Z,3.80
2022-08-26T09:32:39.478Z,4.33
2022-08-26T09:35:30.901Z,3.67
2022-08-26T09:38:28.032Z,4.53
2022-08-26T09:41:27.871Z,4.00
2022-08-26T09:44:17.630Z,3.67
2022-08-26T09:47:07.446Z,3.80
2022-08-26T09:50:09.450Z,3.50
2022-08-26T09:53:16.668Z,3.70
2022-08-26T09:56:17.236Z,3.47
2022-08-26T09:59:10.939Z,4.00
2022-08-26T10:02:38.755Z,3.83
2022-08-26T10:05:32.375Z,3.95
2022-08-26T10:08:25.279Z,3.58
2022-08-26T10:11:19.113Z,4.15
2022-08-26T10:14:12.950Z,4.18
2022-08-26T10:17:06.888Z,5.13
2022-08-26T10:19:58.136Z,5.20
2022-08-26T10:22:52.353Z,4.25
2022-08-26T10:25:46.497Z,4.03
2022-08-26T10:28:39.325Z,4.35
2022-08-26T10:31:40.252Z,4.80
2022-08-26T10:34:27.690Z,3.95
2022-08-26T10:37:18.961Z,4.45
2022-08-26T10:40:10.048Z,3.90
2022-08-26T10:43:11.082Z,4.30
2022-08-26T10:46:02.264Z,4.78
2022-08-26T10:48:56.671Z,4.70
2022-08-26T10:51:55.514Z,4.63
2022-08-26T10:54:46.932Z,3.85
2022-08-26T10:57:45.182Z,4.35
2022-08-26T11:00:57.816Z,4.97
2022-08-26T11:03:53.259Z,4.97
2022-08-26T11:06:45.851Z,3.90
2022-08-26T11:09:47.340Z,4.57
2022-08-26T11:13:04.499Z,4.30
2022-08-26T11:16:01.312Z,3.78
2022-08-26T11:18:51.396Z,3.92
2022-08-26T11:22:06.048Z,4.30
2022-08-26T11:25:12.296Z,4.47
2022-08-26T11:28:00.818Z,5.00
2022-08-26T11:30:57.011Z,4.63
2022-08-26T11:33:51.032Z,4.20
2022-08-26T11:36:59.705Z,5.55
2022-08-26T11:39:53.874Z,5.10
2022-08-26T11:42:43.924Z,5.88
2022-08-26T11:45:34.986Z,5.55
2022-08-26T11:48:30.838Z,5.28
2022-08-26T11:51:24.757Z,5.35
2022-08-26T11:54:13.572Z,4.10
2022-08-26T11:57:03.745Z,5.28
2022-08-26T11:59:55.195Z,5.32
2022-08-26T12:02:42.123Z,4.38
2022-08-26T12:05:33.623Z,3.83
2022-08-26T12:08:25.978Z,4.32
2022-08-26T12:11:23.032Z,4.65
2022-08-26T12:14:19.627Z,4.72
2022-08-26T12:17:11.650Z,4.82
2022-08-26T12:19:59.262Z,5.05
2022-08-26T12:22:48.149Z,4.80
2022-08-26T12:25:36.433Z,4.75
2022-08-26T12:28:23.575Z,5.55
2022-08-26T12:31:10.782Z,4.53
2022-08-26T12:34:00.101Z,5.30
2022-08-26T12:36:49.654Z,4.90
2022-08-26T12:39:38.871Z,5.18
2022-08-26T12:42:42.284Z,4.88
2022-08-26T12:45:30.375Z,5.05
2022-08-26T12:48:24.489Z,5.30
2022-08-26T12:51:25.161Z,5.30
2022-08-26T12:54:15.982Z,5.55
2022-08-26T12:57:11.287Z,4.97
2022-08-26T13:00:19.463Z,4.95
2022-08-26T13:03:44.499Z,5.25
2022-08-26T13:06:34.593Z,5.78
2022-08-26T13:09:32.044Z,5.25
2022-08-26T13:12:28.341Z,5.30
2022-08-26T13:15:15.795Z,4.80
2022-08-26T13:18:03.397Z,5.45
2022-08-26T13:20:50.567Z,5.40
2022-08-26T13:23:42.405Z,5.40
2022-08-26T13:26:29.523Z,4.70
2022-08-26T13:29:17.051Z,5.65
2022-08-26T13:32:05.517Z,4.32
2022-08-26T13:34:52.867Z,5.25
2022-08-26T13:37:40.057Z,4.70
2022-08-26T13:40:34.488Z,5.47
2022-08-26T13:43:21.647Z,4.80
2022-08-26T13:46:08.593Z,5.07
2022-08-26T13:48:55.880Z,5.10
2022-08-26T13:51:43.380Z,4.20
2022-08-26T13:54:30.482Z,4.20
2022-08-26T13:57:19.180Z,3.90
2022-08-26T14:00:07.453Z,3.93
2022-08-26T14:02:58.460Z,4.93
2022-08-26T14:05:45.545Z,4.80
2022-08-26T14:08:32.653Z,4.67
2022-08-26T14:11:20.459Z,5.33
2022-08-26T14:14:08.868Z,4.53
2022-08-26T14:16:58.695Z,4.60
2022-08-26T14:19:47.792Z,5.87
2022-08-26T14:22:40.408Z,5.73
2022-08-26T14:25:31.117Z,4.73
2022-08-26T14:28:18.291Z,5.30
2022-08-26T14:31:07.419Z,5.33
2022-08-26T14:33:55.257Z,5.47
2022-08-26T14:36:42.365Z,5.03
2022-08-26T14:39:29.551Z,4.93
2022-08-26T14:42:19.000Z,4.73
2022-08-26T14:45:11.615Z,4.90
2022-08-26T14:47:59.753Z,5.57
2022-08-26T14:50:46.844Z,5.60
2022-08-26T14:54:00.062Z,5.67
2022-08-26T14:56:48.834Z,5.33
2022-08-26T14:59:36.634Z,5.30
2022-08-26T15:02:32.859Z,4.93
2022-08-26T15:05:21.860Z,4.87
2022-08-26T15:08:10.875Z,5.40
2022-08-26T15:10:58.373Z,5.40
2022-08-26T15:13:45.832Z,5.40
2022-08-26T15:16:33.635Z,5.20
2022-08-26T15:19:21.948Z,5.80
2022-08-26T15:22:10.330Z,6.10
2022-08-26T15:24:58.262Z,5.83
2022-08-26T15:27:45.583Z,5.60
2022-08-26T15:30:33.478Z,5.07
2022-08-26T15:33:20.773Z,4.93
2022-08-26T15:36:08.563Z,5.73
2022-08-26T15:38:57.757Z,5.40
2022-08-26T15:41:45.083Z,5.50
2022-08-26T15:44:33.991Z,5.40
2022-08-26T15:47:22.102Z,5.23
2022-08-26T15:50:09.827Z,4.97
2022-08-26T15:52:56.916Z,4.70
2022-08-26T15:55:46.631Z,5.23
2022-08-26T15:58:34.212Z,4.70
2022-08-26T16:01:27.575Z,4.13
2022-08-26T16:04:15.327Z,4.43
2022-08-26T16:07:02.349Z,6.50
2022-08-26T16:09:54.032Z,5.23
2022-08-26T16:12:42.942Z,5.60
2022-08-26T16:15:29.971Z,4.60
2022-08-26T16:18:17.114Z,5.90
2022-08-26T16:21:13.230Z,4.63
2022-08-26T16:24:01.655Z,4.77
2022-08-26T16:26:49.105Z,4.40
2022-08-26T16:29:39.705Z,4.13
2022-08-26T16:32:30.710Z,4.73
2022-08-26T16:35:18.363Z,4.63
2022-08-26T16:38:05.703Z,5.70
2022-08-26T16:40:52.827Z,7.30
2022-08-26T16:43:40.052Z,6.40
2022-08-26T16:46:29.499Z,7.23
2022-08-26T16:49:16.712Z,7.90
2022-08-26T16:52:04.311Z,6.77
2022-08-26T16:54:52.023Z,6.10
2022-08-26T16:57:39.220Z,5.77
2022-08-26T17:00:27.955Z,5.30
2022-08-26T17:03:16.827Z,5.37
2022-08-26T17:06:03.944Z,5.60
2022-08-26T17:08:51.484Z,4.80
2022-08-26T17:11:38.529Z,4.87
2022-08-26T17:14:25.549Z,4.90
2022-08-26T17:17:12.867Z,4.57
2022-08-26T17:20:04.968Z,3.73
2022-08-26T17:22:53.706Z,3.50
2022-08-26T17:25:40.619Z,3.60
2022-08-26T17:28:27.578Z,3.20
2022-08-26T17:31:14.818Z,3.10
2022-08-26T17:34:01.965Z,3.13
2022-08-26T17:36:50.645Z,3.17
2022-08-26T17:39:42.489Z,3.40
2022-08-26T17:42:31.669Z,3.70
2022-08-26T17:48:07.732Z,3.00
2022-08-26T17:50:55.052Z,3.60
2022-08-26T17:53:43.384Z,3.40
2022-08-26T17:56:31.324Z,3.53
2022-08-26T17:59:18.633Z,4.40
2022-08-26T18:02:06.210Z,4.07
2022-08-26T18:04:52.923Z,4.80
2022-08-26T18:07:43.815Z,4.30
2022-08-26T18:10:32.504Z,4.97
2022-08-26T18:13:19.884Z,4.40
2022-08-26T18:16:07.811Z,5.60
2022-08-26T18:18:55.047Z,6.30
2022-08-26T18:21:41.962Z,5.90
2022-08-26T18:24:30.378Z,6.43
2022-08-26T18:27:18.665Z,5.80
2022-08-26T18:30:06.358Z,5.80
2022-08-26T18:32:53.590Z,6.10
2022-08-26T18:35:41.046Z,5.40
2022-08-26T18:38:29.951Z,6.00
2022-08-26T18:41:18.361Z,5.60
2022-08-26T18:44:09.476Z,5.67
2022-08-26T18:46:58.534Z,5.97
2022-08-26T18:49:47.206Z,5.97
2022-08-26T18:52:34.385Z,5.87
2022-08-26T18:55:21.778Z,6.60
2022-08-26T18:58:09.123Z,6.23
2022-08-26T19:00:59.243Z,6.40
2022-08-26T19:03:46.292Z,6.13
2022-08-26T19:06:35.390Z,5.67
2022-08-26T19:09:22.678Z,6.60
2022-08-26T19:12:10.240Z,6.37
2022-08-26T19:14:57.368Z,7.07
2022-08-26T19:17:48.480Z,7.10
2022-08-26T19:20:35.776Z,6.87
2022-08-26T19:23:31.552Z,7.70
2022-08-26T19:26:19.310Z,7.27
2022-08-26T19:29:06.718Z,7.43
2022-08-26T19:31:53.825Z,6.90
2022-08-26T19:34:42.395Z,7.20
2022-08-26T19:37:29.677Z,6.10
2022-08-26T19:40:16.821Z,6.50
2022-08-26T19:43:06.752Z,5.63
2022-08-26T19:45:54.117Z,6.43
2022-08-26T19:48:43.956Z,5.60
2022-08-26T19:51:33.906Z,5.23
2022-08-26T19:54:22.421Z,5.80
2022-08-26T19:57:09.465Z,6.33
2022-08-26T19:59:56.509Z,6.10
2022-08-26T20:02:44.231Z,6.60
2022-08-26T20:05:31.714Z,5.83
2022-08-26T20:08:22.534Z,6.13
2022-08-26T20:11:14.463Z,6.30
2022-08-26T20:14:01.605Z,5.90
2022-08-26T20:16:49.263Z,5.93
2022-08-26T20:19:53.733Z,6.40
2022-08-26T20:22:40.893Z,5.80
2022-08-26T20:25:29.010Z,6.30
2022-08-26T20:28:16.185Z,5.87
2022-08-26T20:31:03.659Z,6.40
2022-08-26T20:33:51.580Z,6.47
2022-08-26T20:36:40.329Z,6.33
2022-08-26T20:39:29.432Z,6.80
2022-08-26T20:42:20.200Z,6.47
2022-08-26T20:45:08.609Z,6.60
2022-08-26T20:47:55.710Z,7.40
2022-08-26T20:50:42.807Z,7.70
2022-08-26T20:53:30.577Z,7.10
2022-08-26T20:56:23.581Z,7.67
2022-08-26T20:59:11.841Z,7.57
2022-08-26T21:01:59.193Z,7.90
2022-08-26T21:04:46.397Z,8.27
2022-08-26T21:07:33.406Z,8.47
2022-08-26T21:10:20.697Z,8.13
2022-08-26T21:13:11.497Z,7.37
2022-08-26T21:16:00.306Z,8.43
2022-08-26T21:18:47.804Z,8.53
2022-08-26T21:21:35.083Z,8.27
2022-08-26T21:24:22.572Z,7.43
2022-08-26T21:27:09.921Z,7.60
2022-08-26T21:29:57.022Z,7.80
2022-08-26T21:32:45.552Z,7.80
2022-08-26T21:35:32.784Z,7.07
2022-08-26T21:38:20.141Z,7.70
2022-08-26T21:41:08.646Z,7.77
2022-08-26T21:43:59.100Z,7.90
2022-08-26T21:46:47.409Z,8.10
2022-08-26T21:49:36.804Z,7.13
2022-08-26T21:52:24.115Z,8.07
2022-08-26T21:55:11.779Z,7.70
2022-08-26T21:57:58.983Z,7.63
2022-08-26T22:00:50.273Z,7.63
2022-08-26T22:03:46.741Z,7.60
2022-08-26T22:06:41.977Z,7.73
2022-08-26T22:09:31.573Z,7.13
2022-08-26T22:12:19.207Z,8.50
2022-08-26T22:15:07.443Z,7.63
2022-08-26T22:17:54.471Z,8.10
2022-08-26T22:20:41.365Z,7.30
2022-08-26T22:23:29.652Z,7.17
2022-08-26T22:26:25.323Z,7.57
2022-08-26T22:29:12.695Z,7.23
2022-08-26T22:31:59.923Z,7.67
2022-08-26T22:34:48.228Z,7.33
2022-08-26T22:37:35.070Z,6.93
2022-08-26T22:40:23.532Z,7.30
2022-08-26T22:43:10.700Z,6.70
2022-08-26T22:45:57.840Z,7.00
2022-08-26T22:48:45.186Z,7.37
2022-08-26T22:51:32.636Z,7.47
2022-08-26T22:54:19.379Z,7.33
2022-08-26T22:57:07.604Z,7.20
2022-08-26T22:59:54.858Z,7.63
2022-08-26T23:02:42.268Z,7.73
2022-08-26T23:05:29.502Z,6.40
2022-08-26T23:08:17.352Z,6.80
2022-08-26T23:11:07.846Z,7.17
2022-08-26T23:13:55.930Z,7.30
2022-08-26T23:16:42.873Z,7.93
2022-08-26T23:19:30.205Z,7.80
2022-08-26T23:22:17.721Z,8.33
2022-08-26T23:25:07.670Z,7.07
2022-08-26T23:27:54.810Z,7.87
2022-08-26T23:30:43.532Z,7.13
2022-08-26T23:33:50.567Z,9.70
2022-08-26T23:36:36.484Z,12.57
2022-08-26T23:39:25.390Z,11.47
2022-08-26T23:42:12.669Z,12.77
2022-08-26T23:45:01.013Z,13.97
2022-08-26T23:47:50.479Z,13.53
2022-08-26T23:50:55.227Z,12.40
2022-08-26T23:53:42.649Z,14.43
2022-08-26T23:56:29.635Z,15.20
2022-08-26T23:59:17.015Z,16.57
